Surfside Beach, South Carolina
Current Conditions -  °F | °C
As of 11:45 AM on Wednesday 22 Oct 2014 (Local Time) from KMYR Reporting Station
Clear Clear  
Wind Chill: 63°   Ceiling: Unl
Heat Index: 63°   Visibility: 10mi
Dew Point: 39°   Wind: 15mph
Humidity: 42%   Direction: 340°NNW
Pressure: 30.02"   Gusts: NA
Location:  33.6169°N, 78.9894°W
Report Text: KMYR 221545Z 34013KT 10SM CLR 17/04 A3002
Loading
Personal Weather Stations






























Interactive Weather Map
Tropical Storm Tracking
New forecast layout! Learn more

10-Day Weather Forecast

Advertisements
Track Severe Weather on mobile